Pagina principale
METAR-TAF:

METAR-TAF

Aeroporti :

Hazleton, Pennsylvania, Stati Uniti

latitudine: 40-59-12N, longitudine: 075-59-42W, altezza: 489 m

Osservazione

Il bollettino è stato emesso 14 minuti fa, alle 21:36 UTC
Vento 6 kt da ovest
Temperature 2°C
Umidità 80%
Pressione 1015 hPa
Visibilità: 16.1 km
Nubi sparse ad un'altezza di 2200 ft
Nuvoloso ad un'altezza di 2900 ft
Cielo coperto ad un'altezza di 3900 ft

METAR: KHZL 202136Z AUTO 27006KT 10SM SCT022 BKN029 OVC039 02/M01 A2996 RMK AO2

Ora: 16:50 (21:50 UTC)


TAF: mancante

Osservazioni e previsioni meteorologiche di più di 4000 aeroporti (messaggi METAR e TAF).

Le stazioni disponibili sono rappresentate dai dischi gialli e rossi sulla carta.

Puntare il mouse per vedere il nome della stazione.

Clicca sopra per visualizzare le osservazioni e previsioni meteorologiche.

Per cambiare la mappa : fare clic sui pulsanti verdi con una croce nera per ingrandire, il pulsante verde con un trattino per diminuire, o sulla freccia verde per le mappe adiacenti.


METAR-TAF: